Time;durP1;ratioP1;P1;durP2;ratioP2;P2;SDS_P1;SDS_P2;PMS_P1;PMS_P2;Temp;Humidity;BMP_temperature;BMP_pressure;BME280_temperature;BME280_humidity;BME280_pressure;Samples;Min_cycle;Max_cycle;Signal;HPM_P1;HPM_P2
2022/03/27 00:00:41;;;;;;;4.97;4.50;;;;;;;;;;5054401;28;20422;-53
2022/03/27 00:03:07;;;;;;;4.87;4.57;;;;;;;;;;5055046;28;20984;-51
2022/03/27 00:05:34;;;;;;;6.73;4.07;;;;;;;;;;5055446;28;20181;-53
2022/03/27 00:08:00;;;;;;;4.70;4.30;;;;;;;;;;5055094;28;20451;-52
2022/03/27 00:10:26;;;;;;;4.87;4.47;;;;;;;;;;5055146;28;20419;-51
2022/03/27 00:12:52;;;;;;;8.83;6.33;;;;;;;;;;5051721;28;20815;-53
2022/03/27 00:15:18;;;;;;;5.40;5.00;;;;;;;;;;5054607;28;21022;-50
2022/03/27 00:17:44;;;;;;;4.07;3.87;;;;;;;;;;5054868;28;20499;-53
2022/03/27 00:20:12;;;;;;;3.83;3.63;;;;;;;;;;5054815;28;20424;-53
2022/03/27 00:22:38;;;;;;;4.53;4.23;;;;;;;;;;5054973;28;20426;-52
2022/03/27 00:25:05;;;;;;;4.30;4.00;;;;;;;;;;5054942;28;20812;-53
2022/03/27 00:27:32;;;;;;;5.87;5.30;;;;;;;;;;5054976;28;21003;-52
2022/03/27 00:29:58;;;;;;;7.23;4.50;;;;;;;;;;5052418;28;20431;-51
2022/03/27 00:32:24;;;;;;;5.20;4.70;;;;;;;;;;5047973;28;20416;-52
2022/03/27 00:34:51;;;;;;;5.23;4.93;;;;;;;;;;5054841;28;20975;-50
2022/03/27 00:37:17;;;;;;;5.00;4.60;;;;;;;;;;5054446;28;20451;-51
2022/03/27 00:39:43;;;;;;;6.13;5.40;;;;;;;;;;5054304;28;20909;-51
2022/03/27 00:42:09;;;;;;;5.87;5.57;;;;;;;;;;5054532;28;20419;-51
2022/03/27 00:44:36;;;;;;;5.07;4.63;;;;;;;;;;5054187;28;20561;-53
2022/03/27 00:47:04;;;;;;;5.57;5.17;;;;;;;;;;5051241;28;20440;-52
2022/03/27 00:49:30;;;;;;;5.90;5.13;;;;;;;;;;5054494;28;20889;-53
2022/03/27 00:51:56;;;;;;;6.40;5.83;;;;;;;;;;5054373;28;20423;-52
2022/03/27 00:54:22;;;;;;;7.50;6.63;;;;;;;;;;5036358;28;20427;-52
2022/03/27 00:56:49;;;;;;;5.40;4.90;;;;;;;;;;5054054;28;20451;-52
2022/03/27 00:59:15;;;;;;;4.60;4.40;;;;;;;;;;5054192;28;20415;-53
2022/03/27 01:01:42;;;;;;;4.97;4.03;;;;;;;;;;5054115;28;20423;-52
2022/03/27 01:04:08;;;;;;;4.50;4.20;;;;;;;;;;5052881;28;20416;-53
2022/03/27 01:06:38;;;;;;;5.10;4.70;;;;;;;;;;5048834;28;20424;-52
2022/03/27 01:11:50;;;;;;;4.20;3.80;;;;;;;;;;5054171;28;20415;-52
2022/03/27 01:14:32;;;;;;;4.20;3.93;;;;;;;;;;5053663;28;20423;-53
2022/03/27 01:16:58;;;;;;;4.90;4.60;;;;;;;;;;5053725;28;20462;-51
2022/03/27 01:19:25;;;;;;;4.43;4.03;;;;;;;;;;5053834;28;20427;-52
2022/03/27 01:21:51;;;;;;;4.30;3.90;;;;;;;;;;5050906;28;20439;-51
2022/03/27 01:24:18;;;;;;;4.70;4.47;;;;;;;;;;5053717;28;20920;-52
2022/03/27 01:26:44;;;;;;;3.87;3.67;;;;;;;;;;5035781;28;20804;-52
2022/03/27 01:29:10;;;;;;;4.30;4.10;;;;;;;;;;5053634;28;20465;-52
2022/03/27 01:31:37;;;;;;;4.10;3.80;;;;;;;;;;5053687;28;20937;-52
2022/03/27 01:34:03;;;;;;;4.43;4.13;;;;;;;;;;5053693;28;20427;-53
2022/03/27 01:36:35;;;;;;;4.33;4.13;;;;;;;;;;5053267;28;20502;-52
2022/03/27 01:39:04;;;;;;;5.93;5.53;;;;;;;;;;5034553;28;20443;-52
2022/03/27 01:41:30;;;;;;;4.87;4.60;;;;;;;;;;5052942;28;20420;-53
2022/03/27 01:43:56;;;;;;;6.70;4.60;;;;;;;;;;5052736;28;20442;-52
2022/03/27 01:46:22;;;;;;;5.53;5.13;;;;;;;;;;5052908;28;20411;-53
2022/03/27 01:48:48;;;;;;;4.93;4.63;;;;;;;;;;5052802;28;20423;-53
2022/03/27 01:51:14;;;;;;;4.60;4.30;;;;;;;;;;5052632;28;20454;-53
2022/03/27 01:53:41;;;;;;;4.60;4.40;;;;;;;;;;5052642;28;20428;-52
2022/03/27 01:56:08;;;;;;;5.87;5.30;;;;;;;;;;5046497;28;20439;-53
2022/03/27 01:58:37;;;;;;;5.10;4.80;;;;;;;;;;5052274;28;20948;-52
2022/03/27 02:01:03;;;;;;;4.90;4.50;;;;;;;;;;5052635;28;20415;-53
2022/03/27 02:03:29;;;;;;;7.17;6.47;;;;;;;;;;5052224;28;20423;-53
2022/03/27 02:05:56;;;;;;;5.67;5.23;;;;;;;;;;5052212;28;20468;-53
2022/03/27 02:08:22;;;;;;;5.70;5.20;;;;;;;;;;5052052;28;20415;-52
2022/03/27 02:10:48;;;;;;;5.20;4.80;;;;;;;;;;5043416;28;20538;-51
2022/03/27 02:13:15;;;;;;;6.00;5.07;;;;;;;;;;5052516;28;20486;-52
2022/03/27 02:15:41;;;;;;;6.33;5.83;;;;;;;;;;5066000;28;20484;-52
2022/03/27 02:18:09;;;;;;;6.90;6.17;;;;;;;;;;5072560;28;20461;-51
2022/03/27 02:20:35;;;;;;;8.23;6.90;;;;;;;;;;5072186;28;20427;-52
2022/03/27 02:23:02;;;;;;;11.33;10.13;;;;;;;;;;5072475;28;20426;-53
2022/03/27 02:25:28;;;;;;;12.67;10.20;;;;;;;;;;5072638;28;20192;-53
2022/03/27 02:27:54;;;;;;;11.67;9.83;;;;;;;;;;5070697;28;20431;-52
2022/03/27 02:30:20;;;;;;;13.93;10.40;;;;;;;;;;5043949;28;20427;-53
2022/03/27 02:32:48;;;;;;;14.27;11.20;;;;;;;;;;5060642;28;20426;-52
2022/03/27 02:35:14;;;;;;;12.73;10.67;;;;;;;;;;5064126;28;20944;-51
2022/03/27 02:37:40;;;;;;;15.60;10.27;;;;;;;;;;5054112;28;20557;-51
2022/03/27 02:40:06;;;;;;;16.60;12.87;;;;;;;;;;5072154;28;20506;-52
2022/03/27 02:42:32;;;;;;;15.97;11.90;;;;;;;;;;5071939;28;20415;-52
2022/03/27 02:44:58;;;;;;;15.67;12.70;;;;;;;;;;5063014;28;20538;-53
2022/03/27 02:47:24;;;;;;;16.30;12.40;;;;;;;;;;5072119;28;20411;-53
2022/03/27 02:49:50;;;;;;;17.30;13.57;;;;;;;;;;5071817;28;20916;-53
2022/03/27 02:52:16;;;;;;;25.10;12.93;;;;;;;;;;5072050;28;20419;-52
2022/03/27 02:54:44;;;;;;;19.90;14.03;;;;;;;;;;5072036;28;20517;-52
2022/03/27 02:57:10;;;;;;;15.80;13.10;;;;;;;;;;5071679;28;20544;-53
2022/03/27 02:59:37;;;;;;;19.47;13.83;;;;;;;;;;5071879;28;20428;-53
2022/03/27 03:02:04;;;;;;;13.50;10.87;;;;;;;;;;5067367;28;20435;-53
2022/03/27 03:04:34;;;;;;;16.50;12.23;;;;;;;;;;5071092;28;20848;-52
2022/03/27 03:07:00;;;;;;;20.70;15.07;;;;;;;;;;5071791;28;20493;-52
2022/03/27 03:09:27;;;;;;;17.50;13.00;;;;;;;;;;5071797;28;20439;-53
2022/03/27 03:11:53;;;;;;;20.77;12.97;;;;;;;;;;5071742;28;20971;-50
2022/03/27 03:14:19;;;;;;;20.00;12.80;;;;;;;;;;5071333;28;20419;-52
2022/03/27 03:16:49;;;;;;;18.80;13.47;;;;;;;;;;5053523;28;20434;-52
2022/03/27 03:19:16;;;;;;;20.90;13.50;;;;;;;;;;5056409;28;20439;-52
2022/03/27 03:21:42;;;;;;;25.17;13.97;;;;;;;;;;5071043;28;20411;-52
2022/03/27 03:24:09;;;;;;;17.77;13.03;;;;;;;;;;5070929;28;20920;-53
2022/03/27 03:26:35;;;;;;;25.77;15.27;;;;;;;;;;5071125;28;20423;-51
2022/03/27 03:29:01;;;;;;;22.53;14.27;;;;;;;;;;5070805;28;20450;-51
2022/03/27 03:31:28;;;;;;;18.83;13.17;;;;;;;;;;5070175;28;20429;-53
2022/03/27 03:33:54;;;;;;;20.90;13.57;;;;;;;;;;5070921;28;20427;-53
2022/03/27 03:36:20;;;;;;;17.17;13.63;;;;;;;;;;5064476;28;20442;-53
2022/03/27 03:38:46;;;;;;;27.97;15.63;;;;;;;;;;5070964;28;20469;-52
2022/03/27 03:41:12;;;;;;;19.50;13.90;;;;;;;;;;5071234;28;20418;-52
2022/03/27 03:43:38;;;;;;;22.77;15.60;;;;;;;;;;5071132;28;20418;-53
2022/03/27 03:46:04;;;;;;;27.20;16.87;;;;;;;;;;5071164;28;20419;-52
2022/03/27 03:48:31;;;;;;;22.23;15.63;;;;;;;;;;5071351;28;20472;-52
2022/03/27 03:50:57;;;;;;;23.67;17.37;;;;;;;;;;5063188;28;20526;-53
2022/03/27 03:53:24;;;;;;;19.97;15.30;;;;;;;;;;5071338;28;20449;-53
2022/03/27 03:55:50;;;;;;;17.87;13.40;;;;;;;;;;5071208;28;20431;-52
2022/03/27 03:58:16;;;;;;;16.33;13.30;;;;;;;;;;5071037;28;20974;-53
2022/03/27 04:00:42;;;;;;;19.70;14.80;;;;;;;;;;5071167;28;20821;-51
2022/03/27 04:03:11;;;;;;;21.83;14.27;;;;;;;;;;5071227;28;20884;-52
2022/03/27 04:05:37;;;;;;;22.50;15.47;;;;;;;;;;5070523;28;20776;-53
2022/03/27 04:08:03;;;;;;;23.97;15.03;;;;;;;;;;5062735;28;20476;-52
2022/03/27 04:10:29;;;;;;;18.93;14.20;;;;;;;;;;5071205;28;20931;-52
2022/03/27 04:12:56;;;;;;;17.67;13.60;;;;;;;;;;5070647;28;20426;-53
2022/03/27 04:15:22;;;;;;;21.13;13.60;;;;;;;;;;5070601;28;20513;-53
2022/03/27 04:17:54;;;;;;;21.77;14.80;;;;;;;;;;5071105;28;20975;-50
2022/03/27 04:20:20;;;;;;;19.73;13.60;;;;;;;;;;5053046;28;20470;-53
2022/03/27 04:22:46;;;;;;;21.60;13.30;;;;;;;;;;5063051;28;20435;-51
2022/03/27 04:25:15;;;;;;;18.03;13.73;;;;;;;;;;5070982;28;20419;-53
2022/03/27 04:27:41;;;;;;;18.47;13.47;;;;;;;;;;5070870;28;20472;-52
2022/03/27 04:30:08;;;;;;;18.30;13.83;;;;;;;;;;5070940;28;20422;-53
2022/03/27 04:32:35;;;;;;;22.80;13.80;;;;;;;;;;5070970;28;20441;-52
2022/03/27 04:35:01;;;;;;;23.60;16.07;;;;;;;;;;5070894;28;20423;-52
2022/03/27 04:37:27;;;;;;;23.33;14.87;;;;;;;;;;5070843;28;20458;-52
2022/03/27 04:39:59;;;;;;;21.07;14.93;;;;;;;;;;5069779;28;20439;-51
2022/03/27 04:42:26;;;;;;;23.47;15.50;;;;;;;;;;5071456;28;20505;-51
2022/03/27 04:44:52;;;;;;;20.73;14.70;;;;;;;;;;5074411;28;20979;-53
2022/03/27 04:47:19;;;;;;;18.60;15.60;;;;;;;;;;5074322;28;20427;-52
2022/03/27 04:49:45;;;;;;;22.20;16.23;;;;;;;;;;5074481;28;20422;-52
2022/03/27 04:52:11;;;;;;;20.60;15.23;;;;;;;;;;5074275;28;20476;-52
2022/03/27 04:54:38;;;;;;;25.63;16.80;;;;;;;;;;5073519;28;20442;-52
2022/03/27 04:57:04;;;;;;;26.13;17.23;;;;;;;;;;5065846;28;20472;-52
2022/03/27 04:59:30;;;;;;;26.10;16.77;;;;;;;;;;5074201;28;20422;-52
2022/03/27 05:02:01;;;;;;;21.00;14.60;;;;;;;;;;5056326;28;20442;-52
2022/03/27 05:04:27;;;;;;;19.00;14.33;;;;;;;;;;5074216;28;20449;-52
2022/03/27 05:06:53;;;;;;;25.30;14.60;;;;;;;;;;5074143;28;20494;-52
2022/03/27 05:09:20;;;;;;;25.40;15.97;;;;;;;;;;5073149;28;20446;-52
2022/03/27 05:11:46;;;;;;;20.87;14.57;;;;;;;;;;5065615;28;20510;-52
2022/03/27 05:14:12;;;;;;;17.63;13.47;;;;;;;;;;5065535;28;20402;-52
2022/03/27 05:16:39;;;;;;;20.80;14.83;;;;;;;;;;5073856;28;20753;-51
2022/03/27 05:19:05;;;;;;;23.40;16.17;;;;;;;;;;5073993;28;20999;-51
2022/03/27 05:21:31;;;;;;;20.87;15.37;;;;;;;;;;5073685;28;20927;-52
2022/03/27 05:23:58;;;;;;;25.00;15.10;;;;;;;;;;5068955;28;20414;-51
2022/03/27 05:26:24;;;;;;;21.37;15.13;;;;;;;;;;5066888;28;20477;-52
2022/03/27 05:28:50;;;;;;;23.87;15.93;;;;;;;;;;5069738;28;20431;-51
2022/03/27 05:31:17;;;;;;;24.20;15.10;;;;;;;;;;5067741;28;20449;-53
2022/03/27 05:33:43;;;;;;;22.13;15.10;;;;;;;;;;5069634;28;20422;-50
2022/03/27 05:36:10;;;;;;;23.30;16.27;;;;;;;;;;5073482;28;20450;-52
2022/03/27 05:38:39;;;;;;;23.53;15.90;;;;;;;;;;5065634;28;20561;-51
2022/03/27 05:41:06;;;;;;;28.13;16.53;;;;;;;;;;5072323;28;20761;-52
2022/03/27 05:43:32;;;;;;;21.50;14.60;;;;;;;;;;5073343;28;20415;-52
2022/03/27 05:45:58;;;;;;;22.40;16.67;;;;;;;;;;5073016;28;20552;-50
2022/03/27 05:48:24;;;;;;;23.60;14.70;;;;;;;;;;5072263;28;20446;-53
2022/03/27 05:50:50;;;;;;;21.03;13.93;;;;;;;;;;5068394;28;20443;-53
2022/03/27 05:53:16;;;;;;;23.70;17.10;;;;;;;;;;5072970;28;20440;-53
2022/03/27 05:55:42;;;;;;;26.00;16.90;;;;;;;;;;5053879;28;20427;-53
2022/03/27 05:58:08;;;;;;;26.67;17.10;;;;;;;;;;5072069;28;20481;-53
2022/03/27 06:00:34;;;;;;;25.77;16.63;;;;;;;;;;5072572;28;20458;-52
2022/03/27 06:03:00;;;;;;;29.43;17.83;;;;;;;;;;5049266;28;20446;-52
2022/03/27 06:05:26;;;;;;;28.40;16.30;;;;;;;;;;5069218;28;20435;-52
2022/03/27 06:07:54;;;;;;;23.60;15.87;;;;;;;;;;5072773;28;20449;-50
2022/03/27 06:10:23;;;;;;;22.37;15.63;;;;;;;;;;5072932;28;20427;-52
2022/03/27 06:12:50;;;;;;;20.63;14.30;;;;;;;;;;5072566;28;20461;-53
2022/03/27 06:15:17;;;;;;;23.33;15.07;;;;;;;;;;5054385;28;20466;-51
2022/03/27 06:17:45;;;;;;;20.77;14.07;;;;;;;;;;5072800;28;20464;-52
2022/03/27 06:20:12;;;;;;;19.73;14.43;;;;;;;;;;5072502;28;20418;-53
2022/03/27 06:22:39;;;;;;;26.07;14.27;;;;;;;;;;5071905;28;20423;-51
2022/03/27 06:25:06;;;;;;;25.03;15.70;;;;;;;;;;5064246;28;20429;-52
2022/03/27 06:27:32;;;;;;;19.50;15.20;;;;;;;;;;5072364;28;20419;-53
2022/03/27 06:29:58;;;;;;;21.77;14.63;;;;;;;;;;5072226;28;20451;-53
2022/03/27 06:32:27;;;;;;;20.90;14.50;;;;;;;;;;5072015;28;20430;-52
2022/03/27 06:34:57;;;;;;;20.33;14.07;;;;;;;;;;5071634;28;20432;-51
2022/03/27 06:37:23;;;;;;;21.33;14.17;;;;;;;;;;5071171;28;20463;-51
2022/03/27 06:39:49;;;;;;;19.60;13.97;;;;;;;;;;5045542;28;20506;-52
2022/03/27 06:42:16;;;;;;;20.43;15.67;;;;;;;;;;5072064;28;20445;-52
2022/03/27 06:44:42;;;;;;;17.10;13.80;;;;;;;;;;5072143;28;20426;-51
2022/03/27 06:47:09;;;;;;;21.60;15.30;;;;;;;;;;5060830;28;20432;-52
2022/03/27 06:49:35;;;;;;;19.60;14.40;;;;;;;;;;5070160;28;21014;-52
2022/03/27 06:52:01;;;;;;;21.27;16.27;;;;;;;;;;5071741;28;20434;-52
2022/03/27 06:54:29;;;;;;;22.90;14.30;;;;;;;;;;5063835;28;20449;-52
2022/03/27 06:56:55;;;;;;;21.87;15.67;;;;;;;;;;5066092;28;20431;-51
2022/03/27 06:59:21;;;;;;;22.27;14.93;;;;;;;;;;5064724;28;20939;-52
2022/03/27 07:04:33;;;;;;;22.50;15.43;;;;;;;;;;5063775;28;20480;-53
2022/03/27 07:07:00;;;;;;;19.70;14.40;;;;;;;;;;5067149;28;20497;-54
2022/03/27 07:09:26;;;;;;;19.70;15.43;;;;;;;;;;5067997;28;20808;-54
2022/03/27 07:11:52;;;;;;;22.97;15.60;;;;;;;;;;5063011;28;20501;-53
2022/03/27 07:14:18;;;;;;;20.00;13.97;;;;;;;;;;5071177;28;20518;-53
2022/03/27 07:16:44;;;;;;;22.27;16.37;;;;;;;;;;5062828;28;20181;-54
2022/03/27 07:19:11;;;;;;;19.70;15.00;;;;;;;;;;5071361;28;20426;-55
2022/03/27 07:21:40;;;;;;;21.90;15.37;;;;;;;;;;5070136;28;20431;-54
2022/03/27 07:24:06;;;;;;;18.20;13.90;;;;;;;;;;5069129;28;20435;-52
2022/03/27 07:26:33;;;;;;;31.23;15.57;;;;;;;;;;5070519;28;20955;-54
2022/03/27 07:28:59;;;;;;;20.60;15.37;;;;;;;;;;5062418;28;21002;-54
2022/03/27 07:31:25;;;;;;;25.00;14.70;;;;;;;;;;5065854;28;20435;-52
2022/03/27 07:33:52;;;;;;;14.87;13.27;;;;;;;;;;5061406;28;20581;-51
2022/03/27 07:36:18;;;;;;;19.73;15.30;;;;;;;;;;5066997;28;20667;-51
2022/03/27 07:38:44;;;;;;;23.20;15.33;;;;;;;;;;5065884;28;20563;-54
2022/03/27 07:41:11;;;;;;;21.30;15.30;;;;;;;;;;5065876;28;20569;-55
2022/03/27 07:43:37;;;;;;;21.63;15.50;;;;;;;;;;5065418;28;20430;-52
2022/03/27 07:46:02;;;;;;;21.67;15.57;;;;;;;;;;5053276;28;20426;-53
2022/03/27 07:48:28;;;;;;;21.87;16.67;;;;;;;;;;5062599;28;20441;-52
2022/03/27 07:50:56;;;;;;;24.40;17.00;;;;;;;;;;5063950;28;20193;-51
2022/03/27 07:53:22;;;;;;;24.80;17.80;;;;;;;;;;5069078;28;20442;-53
2022/03/27 07:55:48;;;;;;;20.67;14.80;;;;;;;;;;5069661;28;20445;-53
2022/03/27 07:58:14;;;;;;;19.60;16.20;;;;;;;;;;5063615;28;20542;-51
2022/03/27 08:00:40;;;;;;;21.93;16.40;;;;;;;;;;5055180;28;20430;-52
2022/03/27 08:03:08;;;;;;;22.93;15.80;;;;;;;;;;5066815;28;20187;-52
2022/03/27 08:05:34;;;;;;;19.00;15.10;;;;;;;;;;5066080;28;20472;-54
2022/03/27 08:08:00;;;;;;;17.87;14.77;;;;;;;;;;5066534;28;20520;-52
2022/03/27 08:10:26;;;;;;;18.83;16.00;;;;;;;;;;5061303;28;20928;-51
2022/03/27 08:12:52;;;;;;;17.17;13.70;;;;;;;;;;5067670;28;20432;-53
2022/03/27 08:15:19;;;;;;;18.93;13.50;;;;;;;;;;5067544;28;20467;-52
2022/03/27 08:17:45;;;;;;;21.03;15.80;;;;;;;;;;5082342;28;21296;-52
2022/03/27 08:20:11;;;;;;;20.13;14.80;;;;;;;;;;5086876;28;20505;-51
2022/03/27 08:22:37;;;;;;;16.63;13.13;;;;;;;;;;5079362;28;20501;-51
2022/03/27 08:25:03;;;;;;;19.20;14.17;;;;;;;;;;5083508;28;20960;-48
2022/03/27 08:27:31;;;;;;;17.07;12.93;;;;;;;;;;5082811;28;20457;-52
2022/03/27 08:29:57;;;;;;;19.13;13.47;;;;;;;;;;5055684;28;20426;-51
2022/03/27 08:32:23;;;;;;;17.13;13.43;;;;;;;;;;5079047;28;20458;-52
2022/03/27 08:34:50;;;;;;;19.17;13.50;;;;;;;;;;5077734;28;20487;-50
2022/03/27 08:37:17;;;;;;;16.43;13.37;;;;;;;;;;5084769;28;20446;-51
2022/03/27 08:39:46;;;;;;;21.43;15.30;;;;;;;;;;5085649;28;20959;-53
2022/03/27 08:42:16;;;;;;;20.67;13.97;;;;;;;;;;5071975;28;20427;-51
2022/03/27 08:44:42;;;;;;;15.77;13.47;;;;;;;;;;5080943;28;20437;-52
2022/03/27 08:47:15;;;;;;;17.80;13.70;;;;;;;;;;5073823;28;20937;-52
2022/03/27 08:49:43;;;;;;;19.73;14.47;;;;;;;;;;5065677;28;20457;-54
2022/03/27 08:52:10;;;;;;;20.20;14.70;;;;;;;;;;5069914;28;20426;-54
2022/03/27 08:54:43;;;;;;;18.50;14.93;;;;;;;;;;5066515;28;20610;-53
2022/03/27 08:57:22;;;;;;;24.17;15.27;;;;;;;;;;5072996;28;20462;-51
2022/03/27 08:59:50;;;;;;;21.67;16.37;;;;;;;;;;5056243;28;20928;-53
2022/03/27 09:02:19;;;;;;;18.00;15.00;;;;;;;;;;5074111;28;20407;-52
2022/03/27 09:04:45;;;;;;;17.80;14.80;;;;;;;;;;5073799;28;20421;-52
2022/03/27 09:07:11;;;;;;;18.20;14.50;;;;;;;;;;5069810;28;20439;-52
2022/03/27 09:09:37;;;;;;;19.70;15.50;;;;;;;;;;5074767;28;20872;-51
2022/03/27 09:12:04;;;;;;;20.73;14.80;;;;;;;;;;5070764;28;20434;-53
2022/03/27 09:14:34;;;;;;;23.13;15.53;;;;;;;;;;5072928;28;20216;-52
2022/03/27 09:17:07;;;;;;;17.70;14.47;;;;;;;;;;5049239;28;20790;-53
2022/03/27 09:19:34;;;;;;;20.50;14.53;;;;;;;;;;5068538;28;20414;-49
2022/03/27 09:22:03;;;;;;;22.27;14.43;;;;;;;;;;5072135;28;20501;-52
2022/03/27 09:24:35;;;;;;;20.30;15.40;;;;;;;;;;5071572;28;20453;-50
2022/03/27 09:27:01;;;;;;;18.90;15.03;;;;;;;;;;5073338;28;20423;-54
2022/03/27 09:29:27;;;;;;;16.10;13.77;;;;;;;;;;5072442;28;20962;-50
2022/03/27 09:31:57;;;;;;;18.10;14.77;;;;;;;;;;5071937;28;20181;-51
2022/03/27 09:34:23;;;;;;;18.70;15.70;;;;;;;;;;5045293;28;20431;-53
2022/03/27 09:36:50;;;;;;;17.27;14.23;;;;;;;;;;5070090;28;21109;-52
2022/03/27 09:39:20;;;;;;;18.57;15.50;;;;;;;;;;5070207;28;20425;-53
2022/03/27 09:41:51;;;;;;;18.53;15.40;;;;;;;;;;5055469;28;20399;-53
2022/03/27 09:44:17;;;;;;;18.47;14.13;;;;;;;;;;5072330;28;20407;-53
2022/03/27 09:46:57;;;;;;;18.37;14.70;;;;;;;;;;5072462;28;20419;-53
2022/03/27 09:49:39;;;;;;;19.30;15.00;;;;;;;;;;5072127;28;20472;-51
2022/03/27 09:52:08;;;;;;;18.33;14.70;;;;;;;;;;5064352;28;20430;-54
2022/03/27 09:54:49;;;;;;;16.87;13.63;;;;;;;;;;5069363;28;20465;-53
2022/03/27 09:57:19;;;;;;;22.60;16.40;;;;;;;;;;5070074;28;20458;-53
2022/03/27 09:59:46;;;;;;;20.40;16.17;;;;;;;;;;5073140;28;20974;-52
2022/03/27 10:02:25;;;;;;;21.57;15.67;;;;;;;;;;5069330;28;20422;-50
2022/03/27 10:04:52;;;;;;;19.47;15.30;;;;;;;;;;5066199;28;20882;-52
2022/03/27 10:07:18;;;;;;;25.63;15.93;;;;;;;;;;5066940;28;20435;-53
2022/03/27 10:09:44;;;;;;;21.40;16.60;;;;;;;;;;5072857;28;20480;-53
2022/03/27 10:12:12;;;;;;;21.00;15.27;;;;;;;;;;5068893;28;20802;-53
2022/03/27 10:14:38;;;;;;;21.33;15.20;;;;;;;;;;5072021;28;20867;-53
2022/03/27 10:17:05;;;;;;;20.60;16.20;;;;;;;;;;5072711;28;20439;-52
2022/03/27 10:19:34;;;;;;;20.83;15.80;;;;;;;;;;5073160;28;20419;-52
2022/03/27 10:22:05;;;;;;;18.07;13.63;;;;;;;;;;5072397;28;20820;-56
2022/03/27 10:24:32;;;;;;;16.03;12.97;;;;;;;;;;5073094;28;20439;-53
2022/03/27 10:27:02;;;;;;;18.57;12.60;;;;;;;;;;5072868;28;20526;-55
2022/03/27 10:29:29;;;;;;;17.40;13.50;;;;;;;;;;5066743;28;20771;-57
2022/03/27 10:31:56;;;;;;;11.93;10.73;;;;;;;;;;5072744;28;20501;-54
2022/03/27 10:34:22;;;;;;;10.87;9.77;;;;;;;;;;5067684;28;20513;-54
2022/03/27 10:36:59;;;;;;;10.87;9.60;;;;;;;;;;5071714;28;20430;-54
2022/03/27 10:39:25;;;;;;;12.37;11.27;;;;;;;;;;5066273;28;20492;-57
2022/03/27 10:42:02;;;;;;;11.20;9.40;;;;;;;;;;5070821;28;20425;-57
2022/03/27 10:44:40;;;;;;;14.50;12.07;;;;;;;;;;5070697;28;20760;-51
2022/03/27 10:47:15;;;;;;;9.87;8.97;;;;;;;;;;5071111;28;20423;-52
2022/03/27 10:49:43;;;;;;;9.83;8.87;;;;;;;;;;5070371;28;21379;-52
2022/03/27 10:52:09;;;;;;;9.73;8.33;;;;;;;;;;5071755;28;21269;-53
2022/03/27 10:54:54;;;;;;;12.17;9.40;;;;;;;;;;5072257;28;20421;-52
2022/03/27 10:57:30;;;;;;;10.33;9.03;;;;;;;;;;5065224;28;20458;-52
2022/03/27 10:59:57;;;;;;;9.40;8.50;;;;;;;;;;5072611;28;20418;-51
2022/03/27 11:02:42;;;;;;;8.60;7.40;;;;;;;;;;5072624;28;20446;-52
2022/03/27 11:05:08;;;;;;;10.67;9.30;;;;;;;;;;5070171;28;20422;-51
2022/03/27 11:07:34;;;;;;;9.63;8.73;;;;;;;;;;5066582;28;20984;-51
2022/03/27 11:10:00;;;;;;;9.17;8.27;;;;;;;;;;5071886;28;20426;-51
2022/03/27 11:12:28;;;;;;;11.97;9.97;;;;;;;;;;5072145;28;20429;-49
2022/03/27 11:14:56;;;;;;;9.83;8.87;;;;;;;;;;5072123;28;20860;-51
2022/03/27 11:17:35;;;;;;;11.47;8.73;;;;;;;;;;5072134;28;20466;-51
2022/03/27 11:20:10;;;;;;;14.30;10.33;;;;;;;;;;5072007;28;20445;-50
2022/03/27 11:22:43;;;;;;;11.63;10.43;;;;;;;;;;5065486;28;20521;-49
2022/03/27 11:25:45;;;;;;;12.57;10.50;;;;;;;;;;5071951;28;20609;-52
2022/03/27 11:28:12;;;;;;;14.23;9.10;;;;;;;;;;5031214;28;20434;-52
2022/03/27 11:30:38;;;;;;;15.00;11.53;;;;;;;;;;5072025;28;20414;-51
2022/03/27 11:33:13;;;;;;;11.37;9.53;;;;;;;;;;5071992;28;20422;-52
2022/03/27 11:35:39;;;;;;;15.67;10.03;;;;;;;;;;5071812;28;20418;-50
2022/03/27 11:38:21;;;;;;;9.77;8.73;;;;;;;;;;5078096;28;20461;-51
2022/03/27 11:40:48;;;;;;;9.63;8.00;;;;;;;;;;5062955;28;20485;-50
2022/03/27 11:43:29;;;;;;;13.93;9.43;;;;;;;;;;5063823;28;20415;-51
2022/03/27 11:45:56;;;;;;;10.27;9.23;;;;;;;;;;5071961;28;20421;-52
2022/03/27 11:48:23;;;;;;;13.00;9.10;;;;;;;;;;5071946;28;20443;-51
2022/03/27 11:50:49;;;;;;;10.13;8.60;;;;;;;;;;5070219;28;20500;-52
2022/03/27 11:53:16;;;;;;;9.40;8.40;;;;;;;;;;5069198;28;20506;-52
2022/03/27 11:55:42;;;;;;;8.50;7.33;;;;;;;;;;5070082;28;20425;-53
2022/03/27 11:58:10;;;;;;;8.67;7.87;;;;;;;;;;5067493;28;21263;-52
2022/03/27 12:00:39;;;;;;;14.77;9.20;;;;;;;;;;5070441;28;20661;-54
2022/03/27 12:03:14;;;;;;;8.67;7.97;;;;;;;;;;5071286;28;20768;-55
2022/03/27 12:05:40;;;;;;;8.60;7.90;;;;;;;;;;5065714;28;20839;-53
2022/03/27 12:08:07;;;;;;;8.93;8.03;;;;;;;;;;5062738;28;20438;-53
2022/03/27 12:10:44;;;;;;;7.30;6.60;;;;;;;;;;5069809;28;20945;-53
2022/03/27 12:13:10;;;;;;;13.40;8.20;;;;;;;;;;5067324;28;20435;-55
2022/03/27 12:15:41;;;;;;;10.30;9.30;;;;;;;;;;5068846;28;21004;-55
2022/03/27 12:18:07;;;;;;;7.93;7.13;;;;;;;;;;5067632;28;20959;-57
2022/03/27 12:20:42;;;;;;;7.67;6.87;;;;;;;;;;5071916;28;20427;-54
2022/03/27 12:23:19;;;;;;;9.93;8.93;;;;;;;;;;5067467;28;20423;-56
2022/03/27 12:25:45;;;;;;;7.50;6.87;;;;;;;;;;5067971;28;20927;-55
2022/03/27 12:30:55;;;;;;;9.30;7.50;;;;;;;;;;5064946;28;20421;-55
2022/03/27 12:33:23;;;;;;;6.13;5.70;;;;;;;;;;5065222;28;20434;-54
2022/03/27 12:36:04;;;;;;;8.40;6.73;;;;;;;;;;5069860;28;20191;-54
2022/03/27 12:38:31;;;;;;;8.33;7.53;;;;;;;;;;5062397;28;20477;-55
2022/03/27 12:40:57;;;;;;;7.00;6.40;;;;;;;;;;5067145;28;20432;-56
2022/03/27 12:43:23;;;;;;;7.77;7.10;;;;;;;;;;5068875;28;20422;-57
2022/03/27 12:45:49;;;;;;;7.37;6.77;;;;;;;;;;5068028;28;20479;-53
2022/03/27 12:48:20;;;;;;;6.77;6.17;;;;;;;;;;5069826;28;20185;-52
2022/03/27 12:50:47;;;;;;;6.67;6.10;;;;;;;;;;5066646;28;21312;-53
2022/03/27 12:53:13;;;;;;;8.20;6.37;;;;;;;;;;5052499;28;20486;-52
2022/03/27 12:55:59;;;;;;;6.00;5.50;;;;;;;;;;5070527;28;20503;-52
2022/03/27 12:58:34;;;;;;;4.57;4.27;;;;;;;;;;5056587;28;20512;-54
2022/03/27 13:01:05;;;;;;;5.30;4.90;;;;;;;;;;5068080;28;20424;-54
2022/03/27 13:03:30;;;;;;;3.87;3.57;;;;;;;;;;5065199;28;20776;-54
2022/03/27 13:05:56;;;;;;;4.37;4.07;;;;;;;;;;5074022;28;20414;-54
2022/03/27 13:08:32;;;;;;;3.70;3.50;;;;;;;;;;5056021;28;20454;-53
2022/03/27 13:11:03;;;;;;;4.40;4.20;;;;;;;;;;5073804;28;20433;-54
2022/03/27 13:13:36;;;;;;;5.07;4.67;;;;;;;;;;5074033;28;20487;-54
2022/03/27 13:16:17;;;;;;;4.47;4.07;;;;;;;;;;5072971;28;20458;-54
2022/03/27 13:18:43;;;;;;;5.67;5.17;;;;;;;;;;5065935;28;20942;-54
2022/03/27 13:21:13;;;;;;;4.30;3.70;;;;;;;;;;5073603;28;20430;-54
2022/03/27 13:23:39;;;;;;;4.43;3.13;;;;;;;;;;5074028;28;20419;-54
2022/03/27 13:26:05;;;;;;;3.57;3.47;;;;;;;;;;5073626;28;20429;-54
2022/03/27 13:28:31;;;;;;;4.10;3.90;;;;;;;;;;5073655;28;20190;-54
2022/03/27 13:30:57;;;;;;;5.13;4.70;;;;;;;;;;5073239;28;20427;-54
2022/03/27 13:33:23;;;;;;;4.30;4.00;;;;;;;;;;5065346;28;20437;-54
2022/03/27 13:35:49;;;;;;;4.23;3.67;;;;;;;;;;5073470;28;20920;-54
2022/03/27 13:38:16;;;;;;;4.40;4.00;;;;;;;;;;5073360;28;20578;-54
2022/03/27 13:43:27;;;;;;;3.47;3.27;;;;;;;;;;5066673;28;20762;-54
2022/03/27 13:45:53;;;;;;;3.67;3.47;;;;;;;;;;5072863;28;20410;-54
2022/03/27 13:48:19;;;;;;;3.87;3.57;;;;;;;;;;5072862;28;20249;-54
2022/03/27 13:50:45;;;;;;;6.20;5.70;;;;;;;;;;5064248;28;20181;-54
2022/03/27 13:53:11;;;;;;;5.47;5.07;;;;;;;;;;5064280;28;20449;-54
2022/03/27 13:55:38;;;;;;;5.10;4.80;;;;;;;;;;5073350;28;20971;-54
2022/03/27 13:58:04;;;;;;;6.00;5.50;;;;;;;;;;5073241;28;20541;-53
2022/03/27 14:00:33;;;;;;;6.60;6.00;;;;;;;;;;5073332;28;20415;-54
2022/03/27 14:02:59;;;;;;;6.40;5.27;;;;;;;;;;5073262;28;20438;-54
2022/03/27 14:05:25;;;;;;;5.83;5.10;;;;;;;;;;5072646;28;20760;-54
2022/03/27 14:07:51;;;;;;;5.80;5.30;;;;;;;;;;5064638;28;20245;-54
2022/03/27 14:10:17;;;;;;;4.97;4.67;;;;;;;;;;5073044;28;20810;-55
2022/03/27 14:12:43;;;;;;;7.20;6.40;;;;;;;;;;5072812;28;20437;-54
2022/03/27 14:15:09;;;;;;;5.27;4.87;;;;;;;;;;5071905;28;20473;-54
2022/03/27 14:17:35;;;;;;;7.73;6.97;;;;;;;;;;5072743;28;20493;-54
2022/03/27 14:20:01;;;;;;;7.37;6.77;;;20.00;1.00;;;;;;5072805;28;20448;-55
2022/03/27 14:22:27;;;;;;;6.40;5.80;;;;;;;;;;5072837;28;20756;-55
2022/03/27 14:24:53;;;;;;;5.90;5.50;;;18.00;99.90;;;;;;5063635;28;20652;-55
2022/03/27 14:27:20;;;;;;;6.37;5.37;;;;;;;;;;5072616;28;20418;-54
2022/03/27 14:29:45;;;;;;;6.03;5.53;;;18.20;99.90;;;;;;5054637;28;20433;-54
2022/03/27 14:32:11;;;;;;;6.83;6.33;;;18.50;99.90;;;;;;5072481;28;20773;-54
2022/03/27 14:34:37;;;;;;;6.70;6.20;;;18.80;99.90;;;;;;5072628;28;20249;-54
2022/03/27 14:37:04;;;;;;;7.37;6.77;;;19.00;99.90;;;;;;5072418;28;20230;-54
2022/03/27 14:39:30;;;;;;;7.07;6.40;;;;;;;;;;5070155;28;20429;-55